Aviation Digital Data Service (ADDS)

Output produced by METARs form (0737 UTC 18 November 2018)
found at http://www.aviationweather.gov/metar/data/
 
METAR text: RJFO 180700Z 36010KT 9999 FEW020 BKN090 17/12 Q1017
Conditions at: RJFO (OITA AIRPORT , JP) observed 0700 UTC 18 November 2018
Temperature: 17.0°C (63°F)
Dewpoint: 12.0°C (54°F) [RH = 72%]
Pressure (altimeter): 30.03 inches Hg (1017.0 mb)
Winds: from the N (360 degrees) at 12 MPH (10 knots; 5.1 m/s)
Visibility: 6 or more miles (10+ km)
Ceiling: 9000 feet AGL
Clouds: few clouds at 2000 feet AGL
broken clouds at 9000 feet AGL
Weather: no significant weather observed at this time

Forecast for: RJFO (OITA AIRPORT , JP)
Text: TAF RJFO 180506Z 1806/1912 28006KT 9999 FEW030
Forecast period: 0600 UTC 18 November 2018 to 0000 UTC 19 November 2018
Forecast type: FROM: standard forecast or significant change
Winds: from the W (280 degrees) at 7 MPH (6 knots; 3.1 m/s)
Visibility: 6 or more miles 10+ km)
Ceiling: at least 12,000 feet AGL
Clouds: few clouds at 3000 feet AGL
Weather: no significant weather forecast for this period
Text: BECMG 1900/1903 34010KT
Forecast period: 0000 to 1200 UTC 19 November 2018
Forecast type: BECOMING: Conditions expected to become as follows by 0300 UTC 19 November 2018
Winds: from the NNW (340 degrees) at 12 MPH (10 knots; 5.1 m/s)
Visibility: 6 or more miles 10+ km)
Ceiling: at least 12,000 feet AGL
Clouds: few clouds at 3000 feet AGL
Weather: no significant weather forecast for this period